createdAt,value
2023-06-30T00:00:01.964Z,18.33
2023-06-30T00:05:01.464Z,18.21
2023-06-30T00:10:01.973Z,18.15
2023-06-30T00:15:01.703Z,18.05
2023-06-30T00:20:02.186Z,17.97
2023-06-30T00:25:01.432Z,17.93
2023-06-30T00:30:01.879Z,17.88
2023-06-30T00:35:01.379Z,17.78
2023-06-30T00:40:02.112Z,17.53
2023-06-30T00:45:02.117Z,17.44
2023-06-30T00:50:02.169Z,17.32
2023-06-30T00:55:01.452Z,17.11
2023-06-30T01:00:01.633Z,17.09
2023-06-30T01:05:01.642Z,16.95
2023-06-30T01:10:02.221Z,16.86
2023-06-30T01:15:01.550Z,16.76
2023-06-30T01:20:02.017Z,16.7
2023-06-30T01:25:01.297Z,16.66
2023-06-30T01:30:01.848Z,16.51
2023-06-30T01:35:02.202Z,16.47
2023-06-30T01:40:02.082Z,16.43
2023-06-30T01:45:02.104Z,16.27
2023-06-30T01:50:02.009Z,16.14
2023-06-30T01:55:01.999Z,16.1
2023-06-30T02:00:02.103Z,15.95
2023-06-30T02:05:01.527Z,15.87
2023-06-30T02:10:01.833Z,15.73
2023-06-30T02:15:01.939Z,15.68
2023-06-30T02:20:02.223Z,15.63
2023-06-30T02:25:01.410Z,15.57
2023-06-30T02:30:01.875Z,15.58
2023-06-30T02:35:01.419Z,15.46
2023-06-30T02:40:01.798Z,15.44
2023-06-30T02:45:01.939Z,15.34
2023-06-30T02:50:01.879Z,15.38
2023-06-30T02:55:02.042Z,15.3
2023-06-30T03:00:01.614Z,15.27
2023-06-30T03:05:02.412Z,15.3
2023-06-30T03:10:01.421Z,15.26
2023-06-30T03:15:01.824Z,15.26
2023-06-30T03:20:01.852Z,15.15
2023-06-30T03:25:01.429Z,15.1
2023-06-30T03:30:01.670Z,15.06
2023-06-30T03:35:01.792Z,14.95
2023-06-30T03:40:02.219Z,14.93
2023-06-30T03:45:02.031Z,14.91
2023-06-30T03:50:02.555Z,14.82
2023-06-30T03:55:02.695Z,14.68
2023-06-30T04:00:01.772Z,14.69
2023-06-30T04:05:02.109Z,14.74
2023-06-30T04:10:02.143Z,14.59
2023-06-30T04:15:01.952Z,14.56
2023-06-30T04:20:02.002Z,14.59
2023-06-30T04:25:02.319Z,14.52
2023-06-30T04:30:01.988Z,14.52
2023-06-30T04:35:02.244Z,14.49
2023-06-30T04:40:02.104Z,14.5
2023-06-30T04:45:02.189Z,14.45
2023-06-30T04:50:02.138Z,14.58
2023-06-30T04:55:02.087Z,14.55
2023-06-30T05:00:02.167Z,14.48
2023-06-30T05:05:01.979Z,14.45
2023-06-30T05:10:02.072Z,14.47
2023-06-30T05:15:02.097Z,14.43
2023-06-30T05:20:01.894Z,14.49
2023-06-30T05:25:01.838Z,14.5
2023-06-30T05:30:01.860Z,14.56
2023-06-30T05:35:01.957Z,14.55
2023-06-30T05:40:01.728Z,14.52
2023-06-30T05:45:01.988Z,14.38
2023-06-30T05:50:01.838Z,14.4
2023-06-30T05:55:01.666Z,14.09
2023-06-30T06:00:01.886Z,13.86
2023-06-30T06:05:02.144Z,13.89
2023-06-30T06:10:02.190Z,13.98
2023-06-30T06:15:01.291Z,14.12
2023-06-30T06:20:01.833Z,14.34
2023-06-30T06:25:01.553Z,14.48
2023-06-30T06:30:01.780Z,14.51
2023-06-30T06:35:02.026Z,14.62
2023-06-30T06:40:02.071Z,14.71
2023-06-30T06:45:01.573Z,14.8
2023-06-30T06:50:02.102Z,14.7
2023-06-30T06:55:01.935Z,14.73
2023-06-30T07:00:05.459Z,14.71
2023-06-30T07:05:01.351Z,14.68
2023-06-30T07:10:01.877Z,14.74
2023-06-30T07:15:01.942Z,14.79
2023-06-30T07:20:02.143Z,14.85
2023-06-30T07:25:02.075Z,14.86
2023-06-30T07:30:02.136Z,14.68
2023-06-30T07:35:01.497Z,14.65
2023-06-30T07:40:12.240Z,14.51
2023-06-30T07:45:01.921Z,14.64
2023-06-30T07:50:02.045Z,14.75
2023-06-30T07:55:01.256Z,14.88
2023-06-30T08:00:02.149Z,15.11
2023-06-30T08:05:02.166Z,15.23
2023-06-30T08:10:01.881Z,15.04
2023-06-30T08:15:02.210Z,15.04
2023-06-30T08:20:01.697Z,15.47
2023-06-30T08:25:01.825Z,16.1
2023-06-30T08:30:02.080Z,16.49
2023-06-30T08:35:01.412Z,16.37
2023-06-30T08:40:02.153Z,17.31
2023-06-30T08:45:02.165Z,17.31
2023-06-30T08:50:01.387Z,17.92
2023-06-30T08:55:02.179Z,17.64
2023-06-30T09:00:01.529Z,17.82
2023-06-30T09:05:02.169Z,17.7
2023-06-30T09:10:01.461Z,18.02
2023-06-30T09:15:01.888Z,18.55
2023-06-30T09:20:02.086Z,18.78
2023-06-30T09:25:01.228Z,18.64
2023-06-30T09:30:01.801Z,18.44
2023-06-30T09:35:01.349Z,18.38
2023-06-30T09:40:01.586Z,18.42
2023-06-30T09:45:01.317Z,18.49
2023-06-30T09:50:01.810Z,18.18
2023-06-30T09:55:01.951Z,17.98
2023-06-30T10:00:01.313Z,17.97
2023-06-30T10:05:02.000Z,18.11
2023-06-30T10:10:01.398Z,18.21
2023-06-30T10:15:01.423Z,18
2023-06-30T10:20:02.717Z,17.84
2023-06-30T10:25:01.936Z,18.04
2023-06-30T10:30:02.119Z,17.87
2023-06-30T10:35:02.218Z,17.75
2023-06-30T10:40:03.469Z,18.02
2023-06-30T10:45:02.225Z,18.52
2023-06-30T10:50:01.693Z,18.63
2023-06-30T10:55:01.461Z,18.63
2023-06-30T11:00:01.896Z,19.51
2023-06-30T11:05:01.362Z,19.98
2023-06-30T11:10:04.486Z,19.88
2023-06-30T11:15:01.313Z,20.11
2023-06-30T11:20:01.836Z,19.85
2023-06-30T11:25:02.146Z,20.39
2023-06-30T11:30:01.435Z,20.49
2023-06-30T11:35:01.971Z,20.31
2023-06-30T11:40:01.951Z,20.57
2023-06-30T11:45:01.675Z,20.87
2023-06-30T11:50:02.095Z,20.42
2023-06-30T11:55:02.226Z,20.33
2023-06-30T12:00:01.422Z,20.47
2023-06-30T12:05:02.067Z,20.17
2023-06-30T12:10:02.084Z,20.1
2023-06-30T12:15:01.637Z,19.84
2023-06-30T12:20:02.053Z,20.11
2023-06-30T12:25:01.364Z,20.36
2023-06-30T12:30:02.129Z,20.4
2023-06-30T12:35:02.303Z,20.07
2023-06-30T12:40:01.670Z,19.89
2023-06-30T12:45:01.286Z,20.01
2023-06-30T12:50:01.729Z,20.41
2023-06-30T12:55:01.837Z,20.22
2023-06-30T13:00:02.002Z,20.1
2023-06-30T13:05:01.344Z,20.03
2023-06-30T13:10:02.194Z,20.16
2023-06-30T13:15:01.366Z,20.04
2023-06-30T13:20:01.895Z,20.26
2023-06-30T13:25:02.241Z,20.13
2023-06-30T13:30:01.658Z,19.81
2023-06-30T13:35:01.926Z,19.87
2023-06-30T13:40:01.298Z,20.28
2023-06-30T13:45:01.615Z,20.05
2023-06-30T13:50:01.960Z,19.77
2023-06-30T13:55:01.968Z,19.8
2023-06-30T14:00:01.607Z,19.79
2023-06-30T14:05:02.031Z,20
2023-06-30T14:10:01.307Z,20.24
2023-06-30T14:15:01.669Z,19.97
2023-06-30T14:20:01.962Z,20
2023-06-30T14:25:02.092Z,20.31
2023-06-30T14:30:01.631Z,20.48
2023-06-30T14:35:02.040Z,20.49
2023-06-30T14:40:02.333Z,20.53
2023-06-30T14:45:02.213Z,20.6
2023-06-30T14:50:01.410Z,20.34
2023-06-30T14:55:02.065Z,20
2023-06-30T15:00:02.007Z,20.03
2023-06-30T15:05:01.396Z,20.32
2023-06-30T15:10:01.898Z,20.42
2023-06-30T15:15:01.375Z,20.48
2023-06-30T15:20:01.891Z,20.56
2023-06-30T15:25:02.060Z,20.7
2023-06-30T15:30:02.215Z,20.87
2023-06-30T15:35:01.320Z,20.83
2023-06-30T15:40:01.704Z,20.78
2023-06-30T15:45:01.877Z,20.84
2023-06-30T15:50:01.919Z,20.8
2023-06-30T15:55:02.843Z,20.66
2023-06-30T16:00:01.565Z,20.63
2023-06-30T16:05:01.940Z,20.63
2023-06-30T16:10:01.350Z,20.71
2023-06-30T16:15:01.715Z,20.74
2023-06-30T16:20:01.854Z,20.72
2023-06-30T16:25:02.090Z,20.63
2023-06-30T16:30:01.410Z,20.5
2023-06-30T16:35:03.210Z,20.5
2023-06-30T16:40:01.346Z,20.54
2023-06-30T16:45:01.618Z,20.46
2023-06-30T16:50:02.111Z,20.43
2023-06-30T16:55:02.229Z,20.33
2023-06-30T17:00:02.249Z,20.28
2023-06-30T17:05:01.421Z,20.26
2023-06-30T17:10:01.750Z,20.21
2023-06-30T17:15:01.841Z,20.11
2023-06-30T17:20:02.068Z,20
2023-06-30T17:25:05.350Z,19.91
2023-06-30T17:30:02.160Z,19.75
2023-06-30T17:35:01.295Z,19.74
2023-06-30T17:40:01.750Z,19.6
2023-06-30T17:45:01.886Z,19.62
2023-06-30T17:50:02.108Z,19.48
2023-06-30T17:55:02.081Z,19.35
2023-06-30T18:00:02.068Z,19.3
2023-06-30T18:05:01.370Z,19.24
2023-06-30T18:10:01.799Z,19.26
2023-06-30T18:15:01.959Z,19.13
2023-06-30T18:20:02.152Z,19.02
2023-06-30T18:25:02.162Z,18.77
2023-06-30T18:30:02.187Z,18.57
2023-06-30T18:35:01.276Z,18.39
2023-06-30T18:40:01.680Z,18.34
2023-06-30T18:45:01.959Z,18.18
2023-06-30T18:50:01.382Z,18.09
2023-06-30T18:55:01.740Z,18.02
2023-06-30T19:00:01.941Z,17.93
2023-06-30T19:05:01.343Z,17.88
2023-06-30T19:10:01.786Z,17.8
2023-06-30T19:15:01.780Z,18.08
2023-06-30T19:20:02.047Z,18.1
2023-06-30T19:25:02.133Z,18.06
2023-06-30T19:30:02.125Z,17.96
2023-06-30T19:35:02.124Z,17.92
2023-06-30T19:40:01.418Z,17.88
2023-06-30T19:45:01.555Z,17.88
2023-06-30T19:50:02.105Z,17.67
2023-06-30T19:55:02.256Z,17.51
2023-06-30T20:00:02.057Z,17.35
2023-06-30T20:05:01.603Z,17.06
2023-06-30T20:10:02.157Z,16.89
2023-06-30T20:15:02.141Z,16.82
2023-06-30T20:20:01.329Z,16.79
2023-06-30T20:25:02.224Z,16.79
2023-06-30T20:30:02.200Z,16.77
2023-06-30T20:35:01.282Z,16.71
2023-06-30T20:40:01.561Z,16.67
2023-06-30T20:45:01.984Z,16.81
2023-06-30T20:50:01.404Z,16.9
2023-06-30T20:55:01.676Z,16.96
2023-06-30T21:00:01.958Z,16.91
2023-06-30T21:05:02.295Z,16.91
2023-06-30T21:10:02.190Z,16.89
2023-06-30T21:15:01.895Z,16.75
2023-06-30T21:20:02.181Z,16.72
2023-06-30T21:25:02.082Z,16.74
2023-06-30T21:30:01.990Z,16.88
2023-06-30T21:35:02.147Z,16.7
2023-06-30T21:40:02.436Z,16.48
2023-06-30T21:45:02.232Z,16.26
2023-06-30T21:50:01.363Z,16.13
2023-06-30T21:55:01.672Z,16.28
2023-06-30T22:00:01.762Z,16.48
2023-06-30T22:05:02.237Z,16.44
2023-06-30T22:10:01.622Z,16.36
2023-06-30T22:15:01.832Z,16.3
2023-06-30T22:20:02.217Z,16.31
2023-06-30T22:25:02.168Z,16.36
2023-06-30T22:30:02.200Z,16.4
2023-06-30T22:35:01.472Z,16.4
2023-06-30T22:40:01.748Z,16.47
2023-06-30T22:45:01.964Z,16.49
2023-06-30T22:50:02.200Z,16.52
2023-06-30T22:55:01.249Z,16.51
2023-06-30T23:00:01.685Z,16.46
2023-06-30T23:05:02.122Z,16.41
2023-06-30T23:10:01.969Z,16.41
2023-06-30T23:15:02.137Z,16.39
2023-06-30T23:20:01.309Z,16.41
2023-06-30T23:25:01.590Z,16.43
2023-06-30T23:30:01.579Z,16.42
2023-06-30T23:35:01.746Z,16.34
2023-06-30T23:40:01.982Z,16.29
2023-06-30T23:45:02.024Z,16.2
2023-06-30T23:50:02.157Z,16.14
2023-06-30T23:55:01.422Z,16.08
